• Join FlightAware (Why Join?)
  • Login
  • US Flag 
11:35AM EST


 

Airport Tracker/Info


-or-


 

Live Flight TrackerFlight Track Log ✈ N470BC ✈ 19-Dec-2013 ✈ KDLH - KBUU

Flight Track Log - Related Links

Times and Time Zones

All times are in EST time to prevent confusion due to time zone crossing. See the N470BC flight status page for this flight to view local times or setup timezone preferences in your user account.

Time Position Orientation Groundspeed Altitude Reporting Facility
EST Latitude Longitude Course Direction KTS MPH feet Rate Location/Type
04:28PM 46.7869 -92.0942 145° Southeast 122 140 5,000  Level Minneapolis Center
04:29PM 46.7431 -92.0506 146° Southeast 143 165 5,000  Level Minneapolis Center
04:30PM 46.7036 -92.0122 146° Southeast 160 184 5,000  Level Minneapolis Center
04:31PM 46.6642 -91.9761 148° Southeast 166 191 5,000  Level Minneapolis Center
04:32PM 46.6095 -91.9588 145° Southeast  Level FlightAware Approximate
04:32PM 46.6258 -91.9381 146° Southeast 167 192 5,000  Level Minneapolis Center
04:33PM 46.5708 -91.9196 145° Southeast  Level Estimated
04:33PM 46.5886 -91.8978 143° Southeast 167 192 5,000  Level Minneapolis Center
04:34PM 46.5494 -91.8567 144° Southeast 170 196 5,000  Level Minneapolis Center
04:35PM 46.5028 -91.8114 146° Southeast 170 196 5,000  Level Minneapolis Center
04:36PM 46.4636 -91.7714 145° Southeast 171 197 5,000  Level Minneapolis Center
04:37PM 46.4239 -91.7306 145° Southeast 172 198 5,000  Level Minneapolis Center
04:38PM 46.3847 -91.6922 146° Southeast 173 199 5,000  Level Minneapolis Center
04:39PM 46.3453 -91.6517 145° Southeast 173 199 5,000  Level Minneapolis Center
04:40PM 46.3056 -91.6125 146° Southeast 173 199 5,000  Level Minneapolis Center
04:41PM 46.2581 -91.5656 146° Southeast 173 199 5,000 -60 Level Minneapolis Center
04:52PM 45.8319 -91.1514 147° Southeast 177 204 4,900 -60 Descending Minneapolis Center
04:53PM 45.8109 -91.1399 147° Southeast  Level FlightAware Approximate
04:53PM 45.7936 -91.1150 146° Southeast 168 193 4,900  Level Minneapolis Center
04:54PM 45.7715 -91.1028 147° Southeast  Level FlightAware Approximate
04:54PM 45.7536 -91.0769 146° Southeast 170 196 5,000  Level Minneapolis Center
04:55PM 45.7321 -91.0657 147° Southeast  Level FlightAware Approximate
04:55PM 45.7147 -91.0381 145° Southeast 171 197 5,000  Level Minneapolis Center
04:56PM 45.6926 -91.0287 147° Southeast  Level FlightAware Approximate
04:56PM 45.6747 -91.0000 146° Southeast 171 197 5,000  Level Minneapolis Center
04:57PM 45.6532 -90.9918 147° Southeast  Level FlightAware Approximate
04:57PM 45.6347 -90.9622 147° Southeast 172 198 5,000  Level Minneapolis Center
04:58PM 45.5872 -90.9169 146° Southeast 171 197 5,000  Level Minneapolis Center
04:59PM 45.5483 -90.8786 145° Southeast 171 197 5,000  Level Minneapolis Center
05:00PM 45.5089 -90.8422 147° Southeast 171 197 5,000  Level Minneapolis Center
05:01PM 45.4694 -90.8039 146° Southeast 171 197 5,000  Level Minneapolis Center
05:02PM 45.4297 -90.7661 146° Southeast 171 197 5,000  Level Minneapolis Center
05:03PM 45.3894 -90.7286 147° Southeast 172 198 5,000  Level Minneapolis Center
05:04PM 45.3419 -90.6831 146° Southeast 172 198 5,000  Level Minneapolis Center
05:05PM 45.3019 -90.6450 146° Southeast 172 198 5,000  Level Minneapolis Center
05:06PM 45.2622 -90.6081 147° Southeast 172 198 5,000  Level Minneapolis Center
05:07PM 45.2228 -90.5703 146° Southeast 172 198 5,000  Level Minneapolis Center
05:08PM 45.1828 -90.5339 147° Southeast 171 197 5,000  Level Minneapolis Center
05:09PM 45.1442 -90.4967 146° Southeast 170 196 5,000  Level Minneapolis Center
05:11PM 45.0964 -90.4522 147° Southeast 170 196 5,000  Level Minneapolis Center
05:12PM 45.0589 -90.4181 147° Southeast 167 192 5,000  Level Minneapolis Center
05:13PM 45.0192 -90.3800 146° Southeast 168 193 5,000  Level Minneapolis Center
05:14PM 44.9786 -90.3417 146° Southeast 166 191 5,000  Level Minneapolis Center
05:15PM 44.9383 -90.3042 147° Southeast 168 193 5,000  Level Minneapolis Center
05:16PM 44.8983 -90.2672 147° Southeast 165 190 5,000  Level Minneapolis Center
05:17PM 44.8572 -90.2297 147° Southeast 166 191 5,000  Level Minneapolis Center
05:18PM 44.8203 -90.1950 146° Southeast 167 192 5,000  Level Minneapolis Center
05:19PM 44.7811 -90.1583 146° Southeast 164 189 5,000  Level Minneapolis Center
05:20PM 44.7389 -90.1206 148° Southeast 167 192 5,000  Level Minneapolis Center
05:21PM 44.6981 -90.0831 147° Southeast 169 194 5,000  Level Minneapolis Center
05:22PM 44.6583 -90.0453 146° Southeast 166 191 5,000  Level Minneapolis Center
05:23PM 44.6169 -90.0081 147° Southeast 167 192 5,000  Level Minneapolis Center
05:24PM 44.5792 -89.9736 147° Southeast 169 194 5,000  Level Minneapolis Center
05:25PM 44.5383 -89.9356 146° Southeast 169 194 5,000  Level Minneapolis Center
05:26PM 44.4986 -89.8975 146° Southeast 166 191 5,000  Level Minneapolis Center
05:27PM 44.4575 -89.8617 148° Southeast 168 193 5,000  Level Minneapolis Center
05:28PM 44.4125 -89.8378 159° South 174 200 5,000  Level Minneapolis Center
05:29PM 44.3622 -89.8400 182° South 175 201 5,000  Level Minneapolis Center
05:30PM 44.3211 -89.8228 163° South 170 196 5,000  Level Minneapolis Center
05:31PM 44.2833 -89.7883 147° Southeast 171 197 5,000  Level Minneapolis Center
05:32PM 44.2408 -89.7478 146° Southeast 164 189 5,000  Level Minneapolis Center
05:33PM 44.2014 -89.7103 146° Southeast 165 190 5,000  Level Minneapolis Center
05:34PM 44.1619 -89.6719 145° Southeast 164 189 5,000  Level Minneapolis Center
05:35PM 44.1278 -89.6383 145° Southeast 165 190 5,000  Level Minneapolis Center
05:36PM 44.0867 -89.5992 146° Southeast 164 189 5,000  Level Minneapolis Center
05:37PM 44.0514 -89.5658 146° Southeast 161 185 5,000  Level Minneapolis Center
05:38PM 44.0094 -89.5256 145° Southeast 162 186 5,000  Level Minneapolis Center
05:39PM 43.9739 -89.4900 144° Southeast 161 185 5,000  Level Chicago Center
05:40PM 43.9375 -89.4567 147° Southeast 159 183 5,000  Level Chicago Center
05:42PM 43.9019 -89.4231 146° Southeast 156 180 5,000  Level Chicago Center
05:43PM 43.8650 -89.3872 145° Southeast 159 183 5,000  Level Chicago Center
05:44PM 43.8289 -89.3542 147° Southeast 158 182 5,000  Level Chicago Center
05:45PM 43.7856 -89.3125 145° Southeast 158 182 5,000  Level Chicago Center
05:46PM 43.7497 -89.2789 146° Southeast 158 182 5,000  Level Chicago Center
05:47PM 43.7131 -89.2447 146° Southeast 158 182 5,000  Level Chicago Center
05:48PM 43.6769 -89.2111 146° Southeast 157 181 5,000  Level Chicago Center
05:49PM 43.6411 -89.1772 146° Southeast 158 182 5,000  Level Chicago Center
05:50PM 43.5981 -89.1372 146° Southeast 157 181 5,100  Climbing Chicago Center
05:51PM 43.5619 -89.1039 146° Southeast 157 181 5,100  Level Chicago Center
05:52PM 43.5247 -89.0686 145° Southeast 159 183 5,100  Level Chicago Center
05:53PM 43.4883 -89.0358 147° Southeast 159 183 5,100  Level Chicago Center
05:54PM 43.4514 -89.0017 146° Southeast 159 183 5,100  Level Chicago Center
05:55PM 43.4153 -88.9672 145° Southeast 159 183 5,100 -60 Level Chicago Center
05:56PM 43.3714 -88.9264 146° Southeast 160 184 5,000 -60 Descending Chicago Center
05:57PM 43.3350 -88.8928 146° Southeast 159 183 5,000  Level Chicago Center
05:58PM 43.2989 -88.8589 146° Southeast 158 182 5,000  Level Chicago Center
05:59PM 43.2683 -88.8164 135° Southeast 158 182 5,000  Level Chicago Center
06:00PM 43.2381 -88.7731 134° Southeast 158 182 5,000  Level Chicago Center
06:01PM 43.2003 -88.7228 136° Southeast 159 183 5,000  Level Chicago Center
06:02PM 43.1683 -88.6803 136° Southeast 159 183 5,000  Level Chicago Center
06:03PM 43.1369 -88.6375 135° Southeast 160 184 5,000  Level Chicago Center
06:04PM 43.1056 -88.5942 135° Southeast 160 184 5,000  Level Chicago Center
06:05PM 43.0739 -88.5519 136° Southeast 160 184 5,000 -240 Level Chicago Center
06:06PM 43.0358 -88.4997 135° Southeast 161 185 4,600 -420 Descending Chicago Center
06:07PM 43.0017 -88.4536 135° Southeast 166 191 4,200 -420 Descending Chicago Center
06:08PM 42.9681 -88.4089 136° Southeast 169 194 3,800 -420 Descending Chicago Center
06:09PM 42.9367 -88.3653 135° Southeast 167 192 3,400 -420 Descending Chicago Center
06:10PM 42.9075 -88.3272 136° Southeast 157 181 3,000 -240 Descending Chicago Center
06:12PM 42.8722 -88.2944 146° Southeast 154 177 3,000 -240 Level Chicago Center
06:13PM 42.8308 -88.2983 184° South 153 176 2,600 -240 Descending Chicago Center
06:14PM 42.7908 -88.2994 181° South 148 170 2,600 -300 Level Chicago Center
06:15PM 42.7583 -88.3025 184° South 132 152 2,100 -300 Descending Chicago Center
06:16PM 42.7247 -88.3061 185° South 130 150 2,000 -120 Descending Chicago Center